Accueil
METAR-TAF:

METAR-TAF

Aéroports :

Dübendorf, Suisse

latitude: 47-23-55N, longitude: 8-38-53E, altitude: 448 m

Observation

Le bulletin a été fait il y a 37 minutes, à 06:20 UTC
Vent 3 kt de ouest/nord-ouest
Température 2°C
Humidité 87%
Pression 1018 hPa
Visibilité: 7000 m
Nuages épars à une hauteur de 1200 ft
Nuages fragmentés à une hauteur de 1500 ft
Nuages fragmentés à une hauteur de 5500 ft

METAR: LSMD 080620Z 30003KT 7000 SCT012 BKN015 BKN055 02/M00 Q1018 RMK WHT

Heure: 07:57 (06:57 UTC)


TAF: absent

Observations et prévisions météorologiques de plus de 4000 aéroports (messages METAR et TAF).

Les stations disponibles sont représentées par des disques jaunes et rouges sur la carte.

Passer la souris dessus pour voir le nom de la station.

Cliquer dessus pour voir les observations et prévisions météorologiques.

Pour changer de carte: cliquez sur les boutons verts avec une croix noire pour zoomer, sur le bouton vert avec un tiret pour effectuer un zoom arrière, ou sur les flèches vertes pour les cartes adjacentes.


METAR-TAF: